sensor_id;sensor_type;location;lat;lon;timestamp;P1;durP1;ratioP1;P2;durP2;ratioP2
41293;SDS011;27037;52.010;4.446;2023-05-31T00:02:12;10.13;;;4.78;;
41293;SDS011;27037;52.010;4.446;2023-05-31T00:04:38;8.88;;;4.28;;
41293;SDS011;27037;52.010;4.446;2023-05-31T00:07:04;7.70;;;4.05;;
41293;SDS011;27037;52.010;4.446;2023-05-31T00:09:31;8.85;;;4.72;;
41293;SDS011;27037;52.010;4.446;2023-05-31T00:11:56;7.97;;;4.50;;
41293;SDS011;27037;52.010;4.446;2023-05-31T00:14:22;7.75;;;4.47;;
41293;SDS011;27037;52.010;4.446;2023-05-31T00:16:48;7.32;;;4.13;;
41293;SDS011;27037;52.010;4.446;2023-05-31T00:19:13;7.25;;;4.60;;
41293;SDS011;27037;52.010;4.446;2023-05-31T00:21:39;10.70;;;4.80;;
41293;SDS011;27037;52.010;4.446;2023-05-31T00:24:05;6.18;;;4.20;;
41293;SDS011;27037;52.010;4.446;2023-05-31T00:26:31;6.50;;;4.32;;
41293;SDS011;27037;52.010;4.446;2023-05-31T00:28:56;8.00;;;4.80;;
41293;SDS011;27037;52.010;4.446;2023-05-31T00:31:22;9.88;;;5.00;;
41293;SDS011;27037;52.010;4.446;2023-05-31T00:33:48;9.85;;;5.15;;
41293;SDS011;27037;52.010;4.446;2023-05-31T00:36:14;9.20;;;4.90;;
41293;SDS011;27037;52.010;4.446;2023-05-31T00:38:39;9.57;;;4.65;;
41293;SDS011;27037;52.010;4.446;2023-05-31T00:41:06;11.25;;;5.13;;
41293;SDS011;27037;52.010;4.446;2023-05-31T00:43:33;9.15;;;5.38;;
41293;SDS011;27037;52.010;4.446;2023-05-31T00:45:58;8.63;;;5.43;;
41293;SDS011;27037;52.010;4.446;2023-05-31T00:48:24;10.60;;;5.65;;
41293;SDS011;27037;52.010;4.446;2023-05-31T00:50:50;10.00;;;5.68;;
41293;SDS011;27037;52.010;4.446;2023-05-31T00:53:16;12.05;;;5.40;;
41293;SDS011;27037;52.010;4.446;2023-05-31T00:55:42;11.73;;;5.80;;
41293;SDS011;27037;52.010;4.446;2023-05-31T00:58:08;11.52;;;5.53;;
41293;SDS011;27037;52.010;4.446;2023-05-31T01:00:35;9.68;;;5.55;;
41293;SDS011;27037;52.010;4.446;2023-05-31T01:03:02;8.75;;;5.50;;
41293;SDS011;27037;52.010;4.446;2023-05-31T01:05:28;9.50;;;6.05;;
41293;SDS011;27037;52.010;4.446;2023-05-31T01:07:54;12.18;;;6.07;;
41293;SDS011;27037;52.010;4.446;2023-05-31T01:10:20;13.88;;;5.85;;
41293;SDS011;27037;52.010;4.446;2023-05-31T01:15:26;11.13;;;5.68;;
41293;SDS011;27037;52.010;4.446;2023-05-31T01:18:01;9.80;;;5.70;;
41293;SDS011;27037;52.010;4.446;2023-05-31T01:20:36;10.07;;;5.82;;
41293;SDS011;27037;52.010;4.446;2023-05-31T01:23:11;11.15;;;5.95;;
41293;SDS011;27037;52.010;4.446;2023-05-31T01:26:05;10.90;;;5.75;;
41293;SDS011;27037;52.010;4.446;2023-05-31T01:28:42;9.88;;;5.47;;
41293;SDS011;27037;52.010;4.446;2023-05-31T01:31:11;12.38;;;5.88;;
41293;SDS011;27037;52.010;4.446;2023-05-31T01:33:41;13.20;;;6.05;;
41293;SDS011;27037;52.010;4.446;2023-05-31T01:36:07;11.90;;;6.10;;
41293;SDS011;27037;52.010;4.446;2023-05-31T01:38:33;11.48;;;5.82;;
41293;SDS011;27037;52.010;4.446;2023-05-31T01:40:58;10.65;;;5.85;;
41293;SDS011;27037;52.010;4.446;2023-05-31T01:43:26;11.90;;;6.05;;
41293;SDS011;27037;52.010;4.446;2023-05-31T01:45:53;11.18;;;5.80;;
41293;SDS011;27037;52.010;4.446;2023-05-31T01:48:21;10.02;;;5.75;;
41293;SDS011;27037;52.010;4.446;2023-05-31T01:50:47;10.48;;;5.68;;
41293;SDS011;27037;52.010;4.446;2023-05-31T01:53:14;9.57;;;5.82;;
41293;SDS011;27037;52.010;4.446;2023-05-31T01:55:40;9.18;;;5.70;;
41293;SDS011;27037;52.010;4.446;2023-05-31T01:58:08;9.63;;;5.95;;
41293;SDS011;27037;52.010;4.446;2023-05-31T02:00:35;10.90;;;5.88;;
41293;SDS011;27037;52.010;4.446;2023-05-31T02:03:02;12.50;;;6.47;;
41293;SDS011;27037;52.010;4.446;2023-05-31T02:05:29;12.02;;;6.15;;
41293;SDS011;27037;52.010;4.446;2023-05-31T02:07:55;15.35;;;6.30;;
41293;SDS011;27037;52.010;4.446;2023-05-31T02:10:21;15.73;;;6.68;;
41293;SDS011;27037;52.010;4.446;2023-05-31T02:12:47;11.75;;;5.55;;
41293;SDS011;27037;52.010;4.446;2023-05-31T02:15:18;12.05;;;6.03;;
41293;SDS011;27037;52.010;4.446;2023-05-31T02:17:44;12.18;;;6.10;;
41293;SDS011;27037;52.010;4.446;2023-05-31T02:20:14;12.20;;;6.07;;
41293;SDS011;27037;52.010;4.446;2023-05-31T02:22:40;12.70;;;6.00;;
41293;SDS011;27037;52.010;4.446;2023-05-31T02:25:13;9.48;;;5.30;;
41293;SDS011;27037;52.010;4.446;2023-05-31T02:27:40;11.05;;;5.95;;
41293;SDS011;27037;52.010;4.446;2023-05-31T02:30:07;9.77;;;5.82;;
41293;SDS011;27037;52.010;4.446;2023-05-31T02:32:33;14.15;;;5.65;;
41293;SDS011;27037;52.010;4.446;2023-05-31T02:35:06;9.93;;;5.30;;
41293;SDS011;27037;52.010;4.446;2023-05-31T02:37:33;12.35;;;6.07;;
41293;SDS011;27037;52.010;4.446;2023-05-31T02:40:01;12.65;;;6.22;;
41293;SDS011;27037;52.010;4.446;2023-05-31T02:42:32;11.85;;;5.93;;
41293;SDS011;27037;52.010;4.446;2023-05-31T02:44:59;10.48;;;5.80;;
41293;SDS011;27037;52.010;4.446;2023-05-31T02:47:25;13.52;;;6.22;;
41293;SDS011;27037;52.010;4.446;2023-05-31T02:49:50;13.00;;;5.82;;
41293;SDS011;27037;52.010;4.446;2023-05-31T02:52:16;14.70;;;5.70;;
41293;SDS011;27037;52.010;4.446;2023-05-31T02:54:42;12.88;;;6.47;;
41293;SDS011;27037;52.010;4.446;2023-05-31T02:57:07;9.55;;;5.45;;
41293;SDS011;27037;52.010;4.446;2023-05-31T02:59:33;12.05;;;5.70;;
41293;SDS011;27037;52.010;4.446;2023-05-31T03:01:58;10.18;;;5.93;;
41293;SDS011;27037;52.010;4.446;2023-05-31T03:04:24;12.07;;;5.35;;
41293;SDS011;27037;52.010;4.446;2023-05-31T03:06:50;11.23;;;5.85;;
41293;SDS011;27037;52.010;4.446;2023-05-31T03:09:16;9.85;;;5.82;;
41293;SDS011;27037;52.010;4.446;2023-05-31T03:11:44;11.30;;;5.60;;
41293;SDS011;27037;52.010;4.446;2023-05-31T03:14:11;11.68;;;6.15;;
41293;SDS011;27037;52.010;4.446;2023-05-31T03:16:36;10.85;;;6.35;;
41293;SDS011;27037;52.010;4.446;2023-05-31T03:19:02;9.73;;;5.82;;
41293;SDS011;27037;52.010;4.446;2023-05-31T03:21:28;13.75;;;6.22;;
41293;SDS011;27037;52.010;4.446;2023-05-31T03:23:54;15.43;;;6.30;;
41293;SDS011;27037;52.010;4.446;2023-05-31T03:26:20;13.30;;;6.47;;
41293;SDS011;27037;52.010;4.446;2023-05-31T03:28:45;12.50;;;6.60;;
41293;SDS011;27037;52.010;4.446;2023-05-31T03:31:11;10.63;;;6.07;;
41293;SDS011;27037;52.010;4.446;2023-05-31T03:33:36;13.25;;;6.30;;
41293;SDS011;27037;52.010;4.446;2023-05-31T03:36:02;12.15;;;6.47;;
41293;SDS011;27037;52.010;4.446;2023-05-31T03:38:28;12.98;;;6.22;;
41293;SDS011;27037;52.010;4.446;2023-05-31T03:40:54;12.45;;;6.13;;
41293;SDS011;27037;52.010;4.446;2023-05-31T03:43:20;16.52;;;6.63;;
41293;SDS011;27037;52.010;4.446;2023-05-31T03:45:46;14.60;;;6.47;;
41293;SDS011;27037;52.010;4.446;2023-05-31T03:48:12;11.30;;;6.00;;
41293;SDS011;27037;52.010;4.446;2023-05-31T03:50:39;12.98;;;6.47;;
41293;SDS011;27037;52.010;4.446;2023-05-31T03:53:05;11.77;;;5.90;;
41293;SDS011;27037;52.010;4.446;2023-05-31T03:55:31;13.30;;;6.35;;
41293;SDS011;27037;52.010;4.446;2023-05-31T03:57:57;10.85;;;6.18;;
41293;SDS011;27037;52.010;4.446;2023-05-31T04:00:24;12.88;;;6.75;;
41293;SDS011;27037;52.010;4.446;2023-05-31T04:02:50;13.43;;;5.85;;
41293;SDS011;27037;52.010;4.446;2023-05-31T04:05:16;12.23;;;5.88;;
41293;SDS011;27037;52.010;4.446;2023-05-31T04:07:42;12.38;;;7.10;;
41293;SDS011;27037;52.010;4.446;2023-05-31T04:10:08;15.52;;;6.43;;
41293;SDS011;27037;52.010;4.446;2023-05-31T04:12:33;14.25;;;6.80;;
41293;SDS011;27037;52.010;4.446;2023-05-31T04:14:59;13.68;;;6.78;;
41293;SDS011;27037;52.010;4.446;2023-05-31T04:17:25;14.90;;;7.50;;
41293;SDS011;27037;52.010;4.446;2023-05-31T04:19:51;11.95;;;6.50;;
41293;SDS011;27037;52.010;4.446;2023-05-31T04:22:17;15.43;;;6.90;;
41293;SDS011;27037;52.010;4.446;2023-05-31T04:24:43;14.15;;;7.22;;
41293;SDS011;27037;52.010;4.446;2023-05-31T04:27:08;14.05;;;7.90;;
41293;SDS011;27037;52.010;4.446;2023-05-31T04:29:34;16.05;;;7.13;;
41293;SDS011;27037;52.010;4.446;2023-05-31T04:31:59;15.05;;;7.07;;
41293;SDS011;27037;52.010;4.446;2023-05-31T04:34:25;16.15;;;7.32;;
41293;SDS011;27037;52.010;4.446;2023-05-31T04:36:52;16.85;;;7.78;;
41293;SDS011;27037;52.010;4.446;2023-05-31T04:39:18;14.05;;;7.57;;
41293;SDS011;27037;52.010;4.446;2023-05-31T04:41:45;18.45;;;7.25;;
41293;SDS011;27037;52.010;4.446;2023-05-31T04:44:11;15.65;;;7.50;;
41293;SDS011;27037;52.010;4.446;2023-05-31T04:46:36;16.63;;;7.85;;
41293;SDS011;27037;52.010;4.446;2023-05-31T04:49:02;16.20;;;8.05;;
41293;SDS011;27037;52.010;4.446;2023-05-31T04:51:28;16.80;;;7.88;;
41293;SDS011;27037;52.010;4.446;2023-05-31T04:53:56;15.48;;;7.63;;
41293;SDS011;27037;52.010;4.446;2023-05-31T04:56:21;15.27;;;8.02;;
41293;SDS011;27037;52.010;4.446;2023-05-31T04:58:47;13.85;;;8.00;;
41293;SDS011;27037;52.010;4.446;2023-05-31T05:01:12;17.77;;;9.00;;
41293;SDS011;27037;52.010;4.446;2023-05-31T05:03:40;14.85;;;8.32;;
41293;SDS011;27037;52.010;4.446;2023-05-31T05:06:13;19.13;;;9.23;;
41293;SDS011;27037;52.010;4.446;2023-05-31T05:08:41;14.82;;;8.65;;
41293;SDS011;27037;52.010;4.446;2023-05-31T05:11:11;14.27;;;8.05;;
41293;SDS011;27037;52.010;4.446;2023-05-31T05:13:37;14.00;;;7.78;;
41293;SDS011;27037;52.010;4.446;2023-05-31T05:16:02;14.50;;;8.40;;
41293;SDS011;27037;52.010;4.446;2023-05-31T05:18:28;15.15;;;8.20;;
41293;SDS011;27037;52.010;4.446;2023-05-31T05:20:55;18.00;;;8.30;;
41293;SDS011;27037;52.010;4.446;2023-05-31T05:23:21;16.35;;;8.60;;
41293;SDS011;27037;52.010;4.446;2023-05-31T05:25:47;15.70;;;8.38;;
41293;SDS011;27037;52.010;4.446;2023-05-31T05:28:13;17.23;;;8.00;;
41293;SDS011;27037;52.010;4.446;2023-05-31T05:30:39;17.25;;;9.23;;
41293;SDS011;27037;52.010;4.446;2023-05-31T05:33:04;17.27;;;9.32;;
41293;SDS011;27037;52.010;4.446;2023-05-31T05:35:30;21.35;;;10.20;;
41293;SDS011;27037;52.010;4.446;2023-05-31T05:37:56;16.63;;;9.60;;
41293;SDS011;27037;52.010;4.446;2023-05-31T05:40:24;19.50;;;9.63;;
41293;SDS011;27037;52.010;4.446;2023-05-31T05:42:50;21.83;;;9.40;;
41293;SDS011;27037;52.010;4.446;2023-05-31T05:45:16;20.67;;;10.30;;
41293;SDS011;27037;52.010;4.446;2023-05-31T05:47:41;21.90;;;9.98;;
41293;SDS011;27037;52.010;4.446;2023-05-31T05:50:10;17.25;;;9.27;;
41293;SDS011;27037;52.010;4.446;2023-05-31T05:52:36;17.45;;;10.38;;
41293;SDS011;27037;52.010;4.446;2023-05-31T05:55:02;22.83;;;10.45;;
41293;SDS011;27037;52.010;4.446;2023-05-31T05:57:29;22.08;;;10.93;;
41293;SDS011;27037;52.010;4.446;2023-05-31T05:59:54;20.65;;;10.23;;
41293;SDS011;27037;52.010;4.446;2023-05-31T06:02:21;23.35;;;10.57;;
41293;SDS011;27037;52.010;4.446;2023-05-31T06:04:47;23.65;;;11.05;;
41293;SDS011;27037;52.010;4.446;2023-05-31T06:07:12;24.27;;;11.30;;
41293;SDS011;27037;52.010;4.446;2023-05-31T06:09:38;20.65;;;11.05;;
41293;SDS011;27037;52.010;4.446;2023-05-31T06:12:04;21.38;;;11.52;;
41293;SDS011;27037;52.010;4.446;2023-05-31T06:14:29;25.75;;;11.98;;
41293;SDS011;27037;52.010;4.446;2023-05-31T06:16:55;25.80;;;12.70;;
41293;SDS011;27037;52.010;4.446;2023-05-31T06:19:21;22.80;;;12.02;;
41293;SDS011;27037;52.010;4.446;2023-05-31T06:21:46;20.80;;;12.27;;
41293;SDS011;27037;52.010;4.446;2023-05-31T06:24:13;23.45;;;11.68;;
41293;SDS011;27037;52.010;4.446;2023-05-31T06:26:39;24.17;;;11.65;;
41293;SDS011;27037;52.010;4.446;2023-05-31T06:29:05;23.83;;;12.45;;
41293;SDS011;27037;52.010;4.446;2023-05-31T06:31:30;25.48;;;12.10;;
41293;SDS011;27037;52.010;4.446;2023-05-31T06:33:56;22.27;;;11.98;;
41293;SDS011;27037;52.010;4.446;2023-05-31T06:36:22;24.90;;;12.32;;
41293;SDS011;27037;52.010;4.446;2023-05-31T06:38:47;24.17;;;12.23;;
41293;SDS011;27037;52.010;4.446;2023-05-31T06:41:13;24.05;;;12.20;;
41293;SDS011;27037;52.010;4.446;2023-05-31T06:43:39;25.65;;;12.55;;
41293;SDS011;27037;52.010;4.446;2023-05-31T06:46:04;25.42;;;12.75;;
41293;SDS011;27037;52.010;4.446;2023-05-31T06:48:32;26.33;;;12.50;;
41293;SDS011;27037;52.010;4.446;2023-05-31T06:50:58;23.27;;;11.80;;
41293;SDS011;27037;52.010;4.446;2023-05-31T06:53:24;22.08;;;11.57;;
41293;SDS011;27037;52.010;4.446;2023-05-31T06:55:50;20.48;;;11.25;;
41293;SDS011;27037;52.010;4.446;2023-05-31T06:58:16;27.75;;;12.13;;
41293;SDS011;27037;52.010;4.446;2023-05-31T07:00:42;20.55;;;11.18;;
41293;SDS011;27037;52.010;4.446;2023-05-31T07:03:07;22.23;;;11.50;;
41293;SDS011;27037;52.010;4.446;2023-05-31T07:05:33;25.80;;;11.13;;
41293;SDS011;27037;52.010;4.446;2023-05-31T07:07:59;20.33;;;10.73;;
41293;SDS011;27037;52.010;4.446;2023-05-31T07:10:25;21.00;;;10.80;;
41293;SDS011;27037;52.010;4.446;2023-05-31T07:12:52;21.20;;;10.93;;
41293;SDS011;27037;52.010;4.446;2023-05-31T07:15:18;19.48;;;10.65;;
41293;SDS011;27037;52.010;4.446;2023-05-31T07:17:44;17.88;;;10.45;;
41293;SDS011;27037;52.010;4.446;2023-05-31T07:20:10;22.77;;;11.18;;
41293;SDS011;27037;52.010;4.446;2023-05-31T07:22:36;17.20;;;9.73;;
41293;SDS011;27037;52.010;4.446;2023-05-31T07:25:02;19.10;;;10.13;;
41293;SDS011;27037;52.010;4.446;2023-05-31T07:27:29;16.90;;;9.45;;
41293;SDS011;27037;52.010;4.446;2023-05-31T07:29:55;16.90;;;9.63;;
41293;SDS011;27037;52.010;4.446;2023-05-31T07:32:21;18.35;;;9.75;;
41293;SDS011;27037;52.010;4.446;2023-05-31T07:34:47;18.67;;;10.20;;
41293;SDS011;27037;52.010;4.446;2023-05-31T07:37:13;17.60;;;9.85;;
41293;SDS011;27037;52.010;4.446;2023-05-31T07:39:38;20.08;;;9.70;;
41293;SDS011;27037;52.010;4.446;2023-05-31T07:42:04;16.27;;;9.02;;
41293;SDS011;27037;52.010;4.446;2023-05-31T07:44:30;20.27;;;9.93;;
41293;SDS011;27037;52.010;4.446;2023-05-31T07:46:56;18.98;;;9.20;;
41293;SDS011;27037;52.010;4.446;2023-05-31T07:49:21;20.10;;;9.15;;
41293;SDS011;27037;52.010;4.446;2023-05-31T07:51:47;18.45;;;8.95;;
41293;SDS011;27037;52.010;4.446;2023-05-31T07:54:13;22.55;;;9.20;;
41293;SDS011;27037;52.010;4.446;2023-05-31T07:56:38;17.00;;;8.65;;
41293;SDS011;27037;52.010;4.446;2023-05-31T07:59:05;16.63;;;8.75;;
41293;SDS011;27037;52.010;4.446;2023-05-31T08:01:31;13.90;;;8.82;;
41293;SDS011;27037;52.010;4.446;2023-05-31T08:04:08;20.45;;;8.75;;
41293;SDS011;27037;52.010;4.446;2023-05-31T08:06:34;16.92;;;8.27;;
41293;SDS011;27037;52.010;4.446;2023-05-31T08:09:02;18.90;;;8.98;;
41293;SDS011;27037;52.010;4.446;2023-05-31T08:11:30;19.33;;;8.70;;
41293;SDS011;27037;52.010;4.446;2023-05-31T08:13:55;16.75;;;8.40;;
41293;SDS011;27037;52.010;4.446;2023-05-31T08:16:21;19.88;;;9.05;;
41293;SDS011;27037;52.010;4.446;2023-05-31T08:18:46;14.88;;;8.60;;
41293;SDS011;27037;52.010;4.446;2023-05-31T08:21:13;19.23;;;8.30;;
41293;SDS011;27037;52.010;4.446;2023-05-31T08:23:39;19.70;;;8.77;;
41293;SDS011;27037;52.010;4.446;2023-05-31T08:26:05;18.63;;;9.13;;
41293;SDS011;27037;52.010;4.446;2023-05-31T08:28:31;15.32;;;8.60;;
41293;SDS011;27037;52.010;4.446;2023-05-31T08:30:57;19.50;;;8.38;;
41293;SDS011;27037;52.010;4.446;2023-05-31T08:33:26;16.50;;;7.43;;
41293;SDS011;27037;52.010;4.446;2023-05-31T08:35:54;14.65;;;7.50;;
41293;SDS011;27037;52.010;4.446;2023-05-31T08:38:24;19.95;;;8.10;;
41293;SDS011;27037;52.010;4.446;2023-05-31T08:40:51;14.55;;;8.20;;
41293;SDS011;27037;52.010;4.446;2023-05-31T08:43:17;15.15;;;8.93;;
41293;SDS011;27037;52.010;4.446;2023-05-31T08:45:46;16.17;;;7.53;;
41293;SDS011;27037;52.010;4.446;2023-05-31T08:48:33;16.95;;;8.00;;
41293;SDS011;27037;52.010;4.446;2023-05-31T08:51:01;21.23;;;8.15;;
41293;SDS011;27037;52.010;4.446;2023-05-31T08:53:27;16.65;;;8.55;;
41293;SDS011;27037;52.010;4.446;2023-05-31T08:55:55;22.17;;;8.43;;
41293;SDS011;27037;52.010;4.446;2023-05-31T08:58:20;16.52;;;8.05;;
41293;SDS011;27037;52.010;4.446;2023-05-31T09:00:47;14.40;;;7.80;;
41293;SDS011;27037;52.010;4.446;2023-05-31T09:03:13;17.45;;;7.40;;
41293;SDS011;27037;52.010;4.446;2023-05-31T09:05:39;11.40;;;6.93;;
41293;SDS011;27037;52.010;4.446;2023-05-31T09:08:05;16.67;;;7.47;;
41293;SDS011;27037;52.010;4.446;2023-05-31T09:10:31;13.52;;;6.82;;
41293;SDS011;27037;52.010;4.446;2023-05-31T09:12:56;15.27;;;7.07;;
41293;SDS011;27037;52.010;4.446;2023-05-31T09:15:23;15.05;;;7.07;;
41293;SDS011;27037;52.010;4.446;2023-05-31T09:17:50;16.17;;;7.63;;
41293;SDS011;27037;52.010;4.446;2023-05-31T09:20:17;16.90;;;6.80;;
41293;SDS011;27037;52.010;4.446;2023-05-31T09:22:46;14.10;;;6.80;;
41293;SDS011;27037;52.010;4.446;2023-05-31T09:25:14;15.77;;;8.05;;
41293;SDS011;27037;52.010;4.446;2023-05-31T09:27:39;15.82;;;6.82;;
41293;SDS011;27037;52.010;4.446;2023-05-31T09:32:35;14.25;;;6.63;;
41293;SDS011;27037;52.010;4.446;2023-05-31T09:37:41;15.45;;;6.18;;
41293;SDS011;27037;52.010;4.446;2023-05-31T09:40:22;13.25;;;6.18;;
41293;SDS011;27037;52.010;4.446;2023-05-31T09:42:50;16.02;;;6.25;;
41293;SDS011;27037;52.010;4.446;2023-05-31T09:45:17;13.32;;;6.65;;
41293;SDS011;27037;52.010;4.446;2023-05-31T09:47:43;11.90;;;5.88;;
41293;SDS011;27037;52.010;4.446;2023-05-31T09:50:16;11.85;;;6.30;;
41293;SDS011;27037;52.010;4.446;2023-05-31T09:52:46;13.98;;;5.55;;
41293;SDS011;27037;52.010;4.446;2023-05-31T09:55:14;11.70;;;5.70;;
41293;SDS011;27037;52.010;4.446;2023-05-31T09:57:41;15.15;;;6.70;;
41293;SDS011;27037;52.010;4.446;2023-05-31T10:00:12;12.48;;;6.10;;
41293;SDS011;27037;52.010;4.446;2023-05-31T10:02:59;12.23;;;5.85;;
41293;SDS011;27037;52.010;4.446;2023-05-31T10:05:26;13.10;;;6.20;;
41293;SDS011;27037;52.010;4.446;2023-05-31T10:07:52;12.73;;;5.90;;
41293;SDS011;27037;52.010;4.446;2023-05-31T10:10:18;11.98;;;6.03;;
41293;SDS011;27037;52.010;4.446;2023-05-31T10:12:48;14.07;;;6.07;;
41293;SDS011;27037;52.010;4.446;2023-05-31T10:15:22;10.80;;;6.05;;
41293;SDS011;27037;52.010;4.446;2023-05-31T10:18:02;13.68;;;6.32;;
41293;SDS011;27037;52.010;4.446;2023-05-31T10:20:37;14.88;;;6.38;;
41293;SDS011;27037;52.010;4.446;2023-05-31T10:23:25;11.73;;;6.03;;
41293;SDS011;27037;52.010;4.446;2023-05-31T10:25:55;12.40;;;6.10;;
41293;SDS011;27037;52.010;4.446;2023-05-31T10:29:00;13.98;;;6.90;;
41293;SDS011;27037;52.010;4.446;2023-05-31T10:31:30;11.40;;;5.25;;
41293;SDS011;27037;52.010;4.446;2023-05-31T10:34:05;13.27;;;5.70;;
41293;SDS011;27037;52.010;4.446;2023-05-31T10:36:52;13.57;;;6.00;;
41293;SDS011;27037;52.010;4.446;2023-05-31T10:42:00;11.93;;;5.70;;
41293;SDS011;27037;52.010;4.446;2023-05-31T10:44:36;9.05;;;4.82;;
41293;SDS011;27037;52.010;4.446;2023-05-31T10:47:10;11.32;;;5.75;;
41293;SDS011;27037;52.010;4.446;2023-05-31T10:49:38;11.10;;;5.78;;
41293;SDS011;27037;52.010;4.446;2023-05-31T10:52:08;14.23;;;5.50;;
41293;SDS011;27037;52.010;4.446;2023-05-31T10:54:34;10.98;;;5.85;;
41293;SDS011;27037;52.010;4.446;2023-05-31T10:57:02;14.27;;;6.78;;
41293;SDS011;27037;52.010;4.446;2023-05-31T10:59:29;13.77;;;6.00;;
41293;SDS011;27037;52.010;4.446;2023-05-31T11:02:05;15.27;;;5.97;;
41293;SDS011;27037;52.010;4.446;2023-05-31T11:04:31;13.35;;;6.43;;
41293;SDS011;27037;52.010;4.446;2023-05-31T11:07:18;11.40;;;5.53;;
41293;SDS011;27037;52.010;4.446;2023-05-31T11:10:08;11.38;;;5.45;;
41293;SDS011;27037;52.010;4.446;2023-05-31T11:12:35;11.55;;;5.85;;
41293;SDS011;27037;52.010;4.446;2023-05-31T11:15:03;17.48;;;7.05;;
41293;SDS011;27037;52.010;4.446;2023-05-31T11:17:38;14.77;;;5.93;;
41293;SDS011;27037;52.010;4.446;2023-05-31T11:20:16;13.05;;;5.38;;
41293;SDS011;27037;52.010;4.446;2023-05-31T11:22:43;11.35;;;4.93;;
41293;SDS011;27037;52.010;4.446;2023-05-31T11:25:08;10.27;;;4.78;;
41293;SDS011;27037;52.010;4.446;2023-05-31T11:27:46;12.48;;;5.00;;
41293;SDS011;27037;52.010;4.446;2023-05-31T11:30:14;15.45;;;5.50;;
41293;SDS011;27037;52.010;4.446;2023-05-31T11:35:15;14.82;;;5.25;;
41293;SDS011;27037;52.010;4.446;2023-05-31T11:37:41;14.77;;;4.65;;
41293;SDS011;27037;52.010;4.446;2023-05-31T11:40:09;12.57;;;5.20;;
41293;SDS011;27037;52.010;4.446;2023-05-31T11:42:39;12.38;;;5.25;;
41293;SDS011;27037;52.010;4.446;2023-05-31T11:45:12;13.07;;;4.93;;
41293;SDS011;27037;52.010;4.446;2023-05-31T11:50:28;15.68;;;5.43;;
41293;SDS011;27037;52.010;4.446;2023-05-31T11:52:54;12.27;;;5.63;;
41293;SDS011;27037;52.010;4.446;2023-05-31T11:55:20;11.52;;;5.05;;
41293;SDS011;27037;52.010;4.446;2023-05-31T11:57:46;10.68;;;4.82;;
41293;SDS011;27037;52.010;4.446;2023-05-31T12:00:17;13.32;;;4.53;;
41293;SDS011;27037;52.010;4.446;2023-05-31T12:02:48;15.18;;;4.43;;
41293;SDS011;27037;52.010;4.446;2023-05-31T12:05:21;11.10;;;4.85;;
41293;SDS011;27037;52.010;4.446;2023-05-31T12:07:47;12.43;;;4.85;;
41293;SDS011;27037;52.010;4.446;2023-05-31T12:10:17;15.65;;;4.25;;
41293;SDS011;27037;52.010;4.446;2023-05-31T12:12:42;11.02;;;4.07;;
41293;SDS011;27037;52.010;4.446;2023-05-31T12:15:11;8.95;;;4.00;;
41293;SDS011;27037;52.010;4.446;2023-05-31T12:17:40;10.50;;;4.25;;
41293;SDS011;27037;52.010;4.446;2023-05-31T12:20:06;9.90;;;4.10;;
41293;SDS011;27037;52.010;4.446;2023-05-31T12:22:32;9.63;;;4.15;;
41293;SDS011;27037;52.010;4.446;2023-05-31T12:24:58;15.10;;;4.80;;
41293;SDS011;27037;52.010;4.446;2023-05-31T12:27:26;10.93;;;4.30;;
41293;SDS011;27037;52.010;4.446;2023-05-31T12:29:59;9.40;;;3.78;;
41293;SDS011;27037;52.010;4.446;2023-05-31T12:32:26;13.63;;;4.50;;
41293;SDS011;27037;52.010;4.446;2023-05-31T12:35:04;11.57;;;4.90;;
41293;SDS011;27037;52.010;4.446;2023-05-31T12:37:34;10.82;;;4.00;;
41293;SDS011;27037;52.010;4.446;2023-05-31T12:40:07;11.38;;;4.20;;
41293;SDS011;27037;52.010;4.446;2023-05-31T12:42:41;8.68;;;4.20;;
41293;SDS011;27037;52.010;4.446;2023-05-31T12:45:07;12.18;;;4.78;;
41293;SDS011;27037;52.010;4.446;2023-05-31T12:47:34;14.68;;;4.68;;
41293;SDS011;27037;52.010;4.446;2023-05-31T12:50:02;12.25;;;4.70;;
41293;SDS011;27037;52.010;4.446;2023-05-31T12:52:30;16.88;;;4.55;;
41293;SDS011;27037;52.010;4.446;2023-05-31T12:54:58;11.52;;;4.28;;
41293;SDS011;27037;52.010;4.446;2023-05-31T12:57:25;14.98;;;4.72;;
41293;SDS011;27037;52.010;4.446;2023-05-31T12:59:57;12.82;;;4.78;;
41293;SDS011;27037;52.010;4.446;2023-05-31T13:02:24;10.07;;;4.20;;
41293;SDS011;27037;52.010;4.446;2023-05-31T13:04:49;12.10;;;4.22;;
41293;SDS011;27037;52.010;4.446;2023-05-31T13:07:15;12.05;;;4.35;;
41293;SDS011;27037;52.010;4.446;2023-05-31T13:09:41;11.93;;;4.30;;
41293;SDS011;27037;52.010;4.446;2023-05-31T13:12:06;10.13;;;4.20;;
41293;SDS011;27037;52.010;4.446;2023-05-31T13:14:32;11.18;;;4.97;;
41293;SDS011;27037;52.010;4.446;2023-05-31T13:16:58;12.00;;;4.30;;
41293;SDS011;27037;52.010;4.446;2023-05-31T13:19:24;13.13;;;4.32;;
41293;SDS011;27037;52.010;4.446;2023-05-31T13:21:50;13.85;;;4.45;;
41293;SDS011;27037;52.010;4.446;2023-05-31T13:24:15;17.38;;;4.95;;
41293;SDS011;27037;52.010;4.446;2023-05-31T13:26:41;14.27;;;6.40;;
41293;SDS011;27037;52.010;4.446;2023-05-31T13:29:07;12.25;;;4.97;;
41293;SDS011;27037;52.010;4.446;2023-05-31T13:31:33;11.40;;;4.10;;
41293;SDS011;27037;52.010;4.446;2023-05-31T13:33:58;12.60;;;3.90;;
41293;SDS011;27037;52.010;4.446;2023-05-31T13:36:24;7.88;;;3.78;;
41293;SDS011;27037;52.010;4.446;2023-05-31T13:38:50;10.20;;;4.47;;
41293;SDS011;27037;52.010;4.446;2023-05-31T13:41:16;14.10;;;4.78;;
41293;SDS011;27037;52.010;4.446;2023-05-31T13:43:42;14.80;;;5.18;;
41293;SDS011;27037;52.010;4.446;2023-05-31T13:46:08;8.90;;;4.40;;
41293;SDS011;27037;52.010;4.446;2023-05-31T13:48:37;10.10;;;3.90;;
41293;SDS011;27037;52.010;4.446;2023-05-31T13:51:04;12.48;;;4.63;;
41293;SDS011;27037;52.010;4.446;2023-05-31T13:53:30;11.25;;;4.65;;
41293;SDS011;27037;52.010;4.446;2023-05-31T13:55:56;11.95;;;4.55;;
41293;SDS011;27037;52.010;4.446;2023-05-31T13:58:22;10.40;;;4.38;;
41293;SDS011;27037;52.010;4.446;2023-05-31T14:00:48;9.98;;;4.72;;
41293;SDS011;27037;52.010;4.446;2023-05-31T14:03:14;9.48;;;4.30;;
41293;SDS011;27037;52.010;4.446;2023-05-31T14:05:41;14.02;;;4.53;;
41293;SDS011;27037;52.010;4.446;2023-05-31T14:08:08;11.23;;;4.28;;
41293;SDS011;27037;52.010;4.446;2023-05-31T14:10:34;9.15;;;4.13;;
41293;SDS011;27037;52.010;4.446;2023-05-31T14:12:59;11.15;;;3.95;;
41293;SDS011;27037;52.010;4.446;2023-05-31T14:15:25;11.98;;;4.50;;
41293;SDS011;27037;52.010;4.446;2023-05-31T14:17:51;10.88;;;3.75;;
41293;SDS011;27037;52.010;4.446;2023-05-31T14:20:16;8.02;;;3.65;;
41293;SDS011;27037;52.010;4.446;2023-05-31T14:22:42;13.50;;;4.68;;
41293;SDS011;27037;52.010;4.446;2023-05-31T14:25:07;10.70;;;3.90;;
41293;SDS011;27037;52.010;4.446;2023-05-31T14:27:33;12.27;;;4.88;;
41293;SDS011;27037;52.010;4.446;2023-05-31T14:29:59;16.17;;;5.25;;
41293;SDS011;27037;52.010;4.446;2023-05-31T14:32:25;10.18;;;4.50;;
41293;SDS011;27037;52.010;4.446;2023-05-31T14:34:51;10.38;;;4.93;;
41293;SDS011;27037;52.010;4.446;2023-05-31T14:37:16;11.63;;;5.38;;
41293;SDS011;27037;52.010;4.446;2023-05-31T14:39:44;12.95;;;5.85;;
41293;SDS011;27037;52.010;4.446;2023-05-31T14:42:10;13.63;;;5.80;;
41293;SDS011;27037;52.010;4.446;2023-05-31T14:44:36;11.80;;;4.15;;
41293;SDS011;27037;52.010;4.446;2023-05-31T14:47:02;12.27;;;5.65;;
41293;SDS011;27037;52.010;4.446;2023-05-31T14:49:28;13.38;;;5.93;;
41293;SDS011;27037;52.010;4.446;2023-05-31T14:51:54;11.85;;;5.47;;